sensor_id;sensor_type;location;lat;lon;timestamp;pressure;altitude;pressure_sealevel;temperature;humidity
6150;BME280;3106;42.670;23.318;2023-02-26T00:02:25;93273.59;;;15.20;42.84
6150;BME280;3106;42.670;23.318;2023-02-26T00:04:53;93265.03;;;15.35;42.21
6150;BME280;3106;42.670;23.318;2023-02-26T00:07:19;93282.75;;;15.33;42.91
6150;BME280;3106;42.670;23.318;2023-02-26T00:09:46;93282.75;;;15.33;43.33
6150;BME280;3106;42.670;23.318;2023-02-26T00:12:13;93252.34;;;15.32;43.23
6150;BME280;3106;42.670;23.318;2023-02-26T00:14:41;93227.03;;;15.23;41.53
6150;BME280;3106;42.670;23.318;2023-02-26T00:17:27;93250.50;;;15.22;42.19
6150;BME280;3106;42.670;23.318;2023-02-26T00:19:58;93229.31;;;15.24;42.74
6150;BME280;3106;42.670;23.318;2023-02-26T00:22:26;93248.97;;;15.21;42.74
6150;BME280;3106;42.670;23.318;2023-02-26T00:24:52;93257.41;;;15.23;42.23
6150;BME280;3106;42.670;23.318;2023-02-26T00:27:19;93248.59;;;15.19;43.05
6150;BME280;3106;42.670;23.318;2023-02-26T00:29:46;93257.75;;;15.32;40.95
6150;BME280;3106;42.670;23.318;2023-02-26T00:32:14;93260.03;;;15.34;43.08
6150;BME280;3106;42.670;23.318;2023-02-26T00:34:42;93239.00;;;15.18;42.52
6150;BME280;3106;42.670;23.318;2023-02-26T00:37:22;93262.06;;;15.19;42.40
6150;BME280;3106;42.670;23.318;2023-02-26T00:39:58;93245.63;;;15.07;42.69
6150;BME280;3106;42.670;23.318;2023-02-26T00:42:31;93301.03;;;15.05;42.63
6150;BME280;3106;42.670;23.318;2023-02-26T00:44:58;93220.63;;;15.10;41.37
6150;BME280;3106;42.670;23.318;2023-02-26T00:47:29;93222.88;;;15.15;41.12
6150;BME280;3106;42.670;23.318;2023-02-26T00:50:12;93231.22;;;15.27;41.06
6150;BME280;3106;42.670;23.318;2023-02-26T00:52:49;93256.63;;;15.23;41.75
6150;BME280;3106;42.670;23.318;2023-02-26T00:55:18;93228.66;;;15.13;41.77
6150;BME280;3106;42.670;23.318;2023-02-26T00:57:45;93250.94;;;15.17;41.66
6150;BME280;3106;42.670;23.318;2023-02-26T01:00:13;93195.94;;;15.15;40.48
6150;BME280;3106;42.670;23.318;2023-02-26T01:02:40;93220.09;;;15.25;39.96
6150;BME280;3106;42.670;23.318;2023-02-26T01:05:08;93229.72;;;15.23;40.33
6150;BME280;3106;42.670;23.318;2023-02-26T01:07:39;93204.00;;;15.18;41.22
6150;BME280;3106;42.670;23.318;2023-02-26T01:10:11;93208.16;;;15.23;40.54
6150;BME280;3106;42.670;23.318;2023-02-26T01:12:39;93210.56;;;15.17;40.45
6150;BME280;3106;42.670;23.318;2023-02-26T01:15:07;93237.50;;;15.14;39.61
6150;BME280;3106;42.670;23.318;2023-02-26T01:17:41;93203.94;;;15.22;39.62
6150;BME280;3106;42.670;23.318;2023-02-26T01:20:15;93210.47;;;15.24;39.47
6150;BME280;3106;42.670;23.318;2023-02-26T01:22:47;93144.59;;;14.96;39.55
6150;BME280;3106;42.670;23.318;2023-02-26T01:25:22;93197.00;;;15.24;39.70
6150;BME280;3106;42.670;23.318;2023-02-26T01:27:51;93165.81;;;15.27;40.41
6150;BME280;3106;42.670;23.318;2023-02-26T01:30:19;93156.28;;;15.19;39.91
6150;BME280;3106;42.670;23.318;2023-02-26T01:32:50;93187.16;;;15.11;40.38
6150;BME280;3106;42.670;23.318;2023-02-26T01:35:31;93145.22;;;15.13;41.21
6150;BME280;3106;42.670;23.318;2023-02-26T01:38:03;93190.28;;;15.03;41.68
6150;BME280;3106;42.670;23.318;2023-02-26T01:40:51;93165.44;;;14.88;42.57
6150;BME280;3106;42.670;23.318;2023-02-26T01:43:27;93173.03;;;15.00;41.85
6150;BME280;3106;42.670;23.318;2023-02-26T01:46:04;93164.59;;;14.98;42.09
6150;BME280;3106;42.670;23.318;2023-02-26T01:48:37;93154.22;;;14.93;42.21
6150;BME280;3106;42.670;23.318;2023-02-26T01:51:04;93160.75;;;14.96;42.37
6150;BME280;3106;42.670;23.318;2023-02-26T01:53:31;93163.47;;;14.92;41.95
6150;BME280;3106;42.670;23.318;2023-02-26T01:56:02;93178.94;;;14.85;42.17
6150;BME280;3106;42.670;23.318;2023-02-26T01:58:33;93105.25;;;14.72;42.13
6150;BME280;3106;42.670;23.318;2023-02-26T02:01:01;93128.53;;;14.89;41.88
6150;BME280;3106;42.670;23.318;2023-02-26T02:03:31;93141.66;;;14.83;41.51
6150;BME280;3106;42.670;23.318;2023-02-26T02:06:01;93117.41;;;14.87;41.22
6150;BME280;3106;42.670;23.318;2023-02-26T02:08:32;93105.13;;;14.86;40.84
6150;BME280;3106;42.670;23.318;2023-02-26T02:11:01;93141.66;;;14.83;40.91
6150;BME280;3106;42.670;23.318;2023-02-26T02:13:36;93105.22;;;14.75;41.40
6150;BME280;3106;42.670;23.318;2023-02-26T02:16:16;93126.09;;;14.64;41.25
6150;BME280;3106;42.670;23.318;2023-02-26T02:18:51;93142.69;;;14.52;41.79
6150;BME280;3106;42.670;23.318;2023-02-26T02:21:33;93127.59;;;14.65;41.59
6150;BME280;3106;42.670;23.318;2023-02-26T02:24:10;93157.16;;;14.69;40.92
6150;BME280;3106;42.670;23.318;2023-02-26T02:26:54;93111.94;;;14.53;40.45
6150;BME280;3106;42.670;23.318;2023-02-26T02:29:54;93156.34;;;14.72;40.40
6150;BME280;3106;42.670;23.318;2023-02-26T02:32:33;93143.22;;;14.81;40.22
6150;BME280;3106;42.670;23.318;2023-02-26T02:35:08;93129.34;;;14.86;39.88
6150;BME280;3106;42.670;23.318;2023-02-26T02:37:40;93115.09;;;14.85;39.61
6150;BME280;3106;42.670;23.318;2023-02-26T02:40:13;93178.94;;;14.85;39.69
6150;BME280;3106;42.670;23.318;2023-02-26T02:42:44;93140.09;;;14.86;39.37
6150;BME280;3106;42.670;23.318;2023-02-26T02:45:19;93151.31;;;14.81;39.72
6150;BME280;3106;42.670;23.318;2023-02-26T02:47:52;93147.75;;;14.91;39.76
6150;BME280;3106;42.670;23.318;2023-02-26T02:50:24;93180.06;;;14.87;40.17
6150;BME280;3106;42.670;23.318;2023-02-26T02:52:56;93155.16;;;14.80;39.92
6150;BME280;3106;42.670;23.318;2023-02-26T02:55:27;93118.59;;;14.82;39.89
6150;BME280;3106;42.670;23.318;2023-02-26T02:57:59;93166.22;;;14.85;39.90
6150;BME280;3106;42.670;23.318;2023-02-26T03:00:29;93146.38;;;14.72;39.90
6150;BME280;3106;42.670;23.318;2023-02-26T03:03:01;93155.16;;;14.80;38.97
6150;BME280;3106;42.670;23.318;2023-02-26T03:05:32;93180.03;;;14.91;39.01
6150;BME280;3106;42.670;23.318;2023-02-26T03:08:03;93167.28;;;14.98;39.28
6150;BME280;3106;42.670;23.318;2023-02-26T03:10:31;93176.97;;;14.89;39.04
6150;BME280;3106;42.670;23.318;2023-02-26T03:12:57;93166.72;;;14.77;39.67
6150;BME280;3106;42.670;23.318;2023-02-26T03:15:31;93141.72;;;14.76;39.79
6150;BME280;3106;42.670;23.318;2023-02-26T03:18:06;93183.25;;;14.75;39.70
6150;BME280;3106;42.670;23.318;2023-02-26T03:20:41;93151.34;;;14.74;39.75
6150;BME280;3106;42.670;23.318;2023-02-26T03:23:17;93169.00;;;14.78;39.55
6150;BME280;3106;42.670;23.318;2023-02-26T03:25:49;93137.50;;;14.75;39.88
6150;BME280;3106;42.670;23.318;2023-02-26T03:28:20;93098.34;;;14.27;39.52
6150;BME280;3106;42.670;23.318;2023-02-26T03:30:55;93149.09;;;14.69;39.60
6150;BME280;3106;42.670;23.318;2023-02-26T03:33:27;93162.94;;;14.67;39.46
6150;BME280;3106;42.670;23.318;2023-02-26T03:35:58;93163.81;;;14.54;39.98
6150;BME280;3106;42.670;23.318;2023-02-26T03:38:29;93125.22;;;14.71;39.75
6150;BME280;3106;42.670;23.318;2023-02-26T03:41:01;93136.34;;;14.73;39.51
6150;BME280;3106;42.670;23.318;2023-02-26T03:43:34;93141.44;;;14.64;39.67
6150;BME280;3106;42.670;23.318;2023-02-26T03:46:05;93137.22;;;14.63;40.15
6150;BME280;3106;42.670;23.318;2023-02-26T03:48:35;93114.97;;;14.59;39.95
6150;BME280;3106;42.670;23.318;2023-02-26T03:51:05;93130.25;;;14.69;39.73
6150;BME280;3106;42.670;23.318;2023-02-26T03:53:37;93154.97;;;14.57;39.82
6150;BME280;3106;42.670;23.318;2023-02-26T03:56:09;93114.16;;;14.65;39.73
6150;BME280;3106;42.670;23.318;2023-02-26T03:58:38;93126.03;;;14.68;39.72
6150;BME280;3106;42.670;23.318;2023-02-26T04:01:09;93124.19;;;14.61;40.23
6150;BME280;3106;42.670;23.318;2023-02-26T04:03:43;93128.00;;;14.64;40.05
6150;BME280;3106;42.670;23.318;2023-02-26T04:06:11;93128.44;;;14.59;40.01
6150;BME280;3106;42.670;23.318;2023-02-26T04:08:39;93128.94;;;14.43;39.95
6150;BME280;3106;42.670;23.318;2023-02-26T04:11:08;93127.97;;;14.67;39.73
6150;BME280;3106;42.670;23.318;2023-02-26T04:13:37;93135.59;;;14.72;39.94
6150;BME280;3106;42.670;23.318;2023-02-26T04:16:04;93120.72;;;14.61;40.52
6150;BME280;3106;42.670;23.318;2023-02-26T04:18:31;93130.31;;;14.65;40.14
6150;BME280;3106;42.670;23.318;2023-02-26T04:20:59;93121.88;;;14.60;40.18
6150;BME280;3106;42.670;23.318;2023-02-26T04:23:26;93130.38;;;14.58;39.92
6150;BME280;3106;42.670;23.318;2023-02-26T04:25:53;93119.56;;;14.62;39.90
6150;BME280;3106;42.670;23.318;2023-02-26T04:28:20;93114.63;;;14.57;39.99
6150;BME280;3106;42.670;23.318;2023-02-26T04:30:47;93106.53;;;14.57;39.68
6150;BME280;3106;42.670;23.318;2023-02-26T04:33:14;93105.69;;;14.67;39.66
6150;BME280;3106;42.670;23.318;2023-02-26T04:35:41;93096.38;;;14.75;38.77
6150;BME280;3106;42.670;23.318;2023-02-26T04:38:09;93088.34;;;14.71;39.15
6150;BME280;3106;42.670;23.318;2023-02-26T04:40:36;93070.34;;;14.65;39.36
6150;BME280;3106;42.670;23.318;2023-02-26T04:43:03;93082.19;;;14.71;39.53
6150;BME280;3106;42.670;23.318;2023-02-26T04:45:30;93085.00;;;14.60;39.52
6150;BME280;3106;42.670;23.318;2023-02-26T04:47:56;93084.38;;;14.46;39.47
6150;BME280;3106;42.670;23.318;2023-02-26T04:50:23;93095.81;;;14.53;39.73
6150;BME280;3106;42.670;23.318;2023-02-26T04:52:50;93080.44;;;14.54;38.82
6150;BME280;3106;42.670;23.318;2023-02-26T04:55:18;93099.56;;;14.63;38.37
6150;BME280;3106;42.670;23.318;2023-02-26T04:57:45;93069.09;;;14.73;38.27
6150;BME280;3106;42.670;23.318;2023-02-26T05:00:12;93071.44;;;14.71;38.09
6150;BME280;3106;42.670;23.318;2023-02-26T05:02:40;93068.63;;;14.81;38.09
6150;BME280;3106;42.670;23.318;2023-02-26T05:05:08;93066.56;;;14.96;37.91
6150;BME280;3106;42.670;23.318;2023-02-26T05:07:35;93070.50;;;14.88;37.70
6150;BME280;3106;42.670;23.318;2023-02-26T05:10:02;93053.63;;;14.84;37.84
6150;BME280;3106;42.670;23.318;2023-02-26T05:12:31;93047.94;;;14.75;38.20
6150;BME280;3106;42.670;23.318;2023-02-26T05:14:58;93054.34;;;14.88;37.68
6150;BME280;3106;42.670;23.318;2023-02-26T05:17:25;93056.25;;;14.91;37.57
6150;BME280;3106;42.670;23.318;2023-02-26T05:19:51;93040.09;;;14.91;37.25
6150;BME280;3106;42.670;23.318;2023-02-26T05:22:18;93038.47;;;14.97;37.38
6150;BME280;3106;42.670;23.318;2023-02-26T05:24:45;93034.75;;;14.87;37.59
6150;BME280;3106;42.670;23.318;2023-02-26T05:27:12;93051.22;;;14.93;37.63
6150;BME280;3106;42.670;23.318;2023-02-26T05:29:40;93043.47;;;14.98;37.64
6150;BME280;3106;42.670;23.318;2023-02-26T05:32:09;93081.44;;;15.07;37.48
6150;BME280;3106;42.670;23.318;2023-02-26T05:34:36;93028.22;;;15.18;37.21
6150;BME280;3106;42.670;23.318;2023-02-26T05:37:02;93059.06;;;15.13;37.04
6150;BME280;3106;42.670;23.318;2023-02-26T05:39:29;93045.22;;;15.11;37.21
6150;BME280;3106;42.670;23.318;2023-02-26T05:41:56;93038.19;;;15.21;36.84
6150;BME280;3106;42.670;23.318;2023-02-26T05:44:23;93022.75;;;15.28;36.90
6150;BME280;3106;42.670;23.318;2023-02-26T05:46:51;93050.41;;;15.29;36.97
6150;BME280;3106;42.670;23.318;2023-02-26T05:49:18;93031.19;;;15.30;36.82
6150;BME280;3106;42.670;23.318;2023-02-26T05:51:45;93052.31;;;15.32;37.01
6150;BME280;3106;42.670;23.318;2023-02-26T05:54:11;93060.25;;;15.42;36.60
6150;BME280;3106;42.670;23.318;2023-02-26T05:56:38;93054.50;;;15.40;36.43
6150;BME280;3106;42.670;23.318;2023-02-26T05:59:05;93027.03;;;15.52;36.19
6150;BME280;3106;42.670;23.318;2023-02-26T06:01:32;93044.28;;;15.58;35.97
6150;BME280;3106;42.670;23.318;2023-02-26T06:04:00;93053.88;;;15.59;36.13
6150;BME280;3106;42.670;23.318;2023-02-26T06:06:26;93055.34;;;15.64;36.38
6150;BME280;3106;42.670;23.318;2023-02-26T06:08:53;93063.78;;;15.66;36.07
6150;BME280;3106;42.670;23.318;2023-02-26T06:11:20;93054.53;;;15.67;35.89
6150;BME280;3106;42.670;23.318;2023-02-26T06:13:47;93073.72;;;15.72;35.38
6150;BME280;3106;42.670;23.318;2023-02-26T06:16:14;93076.72;;;15.78;35.53
6150;BME280;3106;42.670;23.318;2023-02-26T06:18:41;93040.38;;;15.89;35.22
6150;BME280;3106;42.670;23.318;2023-02-26T06:21:09;93072.63;;;15.93;35.25
6150;BME280;3106;42.670;23.318;2023-02-26T06:23:36;93060.22;;;15.99;34.96
6150;BME280;3106;42.670;23.318;2023-02-26T06:26:03;93071.38;;;16.01;35.19
6150;BME280;3106;42.670;23.318;2023-02-26T06:28:30;93092.84;;;16.08;34.94
6150;BME280;3106;42.670;23.318;2023-02-26T06:30:57;93052.75;;;16.10;34.86
6150;BME280;3106;42.670;23.318;2023-02-26T06:33:24;93059.03;;;16.26;34.55
6150;BME280;3106;42.670;23.318;2023-02-26T06:35:51;93066.84;;;16.21;34.32
6150;BME280;3106;42.670;23.318;2023-02-26T06:38:19;93064.78;;;16.28;34.17
6150;BME280;3106;42.670;23.318;2023-02-26T06:40:46;93050.66;;;16.21;34.25
6150;BME280;3106;42.670;23.318;2023-02-26T06:43:13;93076.69;;;16.31;33.91
6150;BME280;3106;42.670;23.318;2023-02-26T06:45:40;93082.06;;;16.34;33.64
6150;BME280;3106;42.670;23.318;2023-02-26T06:48:07;93055.75;;;16.42;33.46
6150;BME280;3106;42.670;23.318;2023-02-26T06:50:34;93004.28;;;16.29;33.77
6150;BME280;3106;42.670;23.318;2023-02-26T06:53:01;93061.19;;;16.38;33.71
6150;BME280;3106;42.670;23.318;2023-02-26T06:55:29;93050.97;;;16.49;33.64
6150;BME280;3106;42.670;23.318;2023-02-26T06:57:56;93047.09;;;16.50;33.29
6150;BME280;3106;42.670;23.318;2023-02-26T07:00:24;93006.53;;;16.34;33.38
6150;BME280;3106;42.670;23.318;2023-02-26T07:02:52;93048.63;;;16.51;33.20
6150;BME280;3106;42.670;23.318;2023-02-26T07:05:19;93053.84;;;16.62;33.26
6150;BME280;3106;42.670;23.318;2023-02-26T07:07:46;93057.44;;;16.74;32.90
6150;BME280;3106;42.670;23.318;2023-02-26T07:10:13;93029.72;;;16.74;32.60
6150;BME280;3106;42.670;23.318;2023-02-26T07:12:41;93038.72;;;16.87;32.87
6150;BME280;3106;42.670;23.318;2023-02-26T07:15:09;93058.44;;;16.84;32.98
6150;BME280;3106;42.670;23.318;2023-02-26T07:17:36;93045.72;;;16.84;32.88
6150;BME280;3106;42.670;23.318;2023-02-26T07:20:03;93017.81;;;16.91;32.67
6150;BME280;3106;42.670;23.318;2023-02-26T07:22:34;93080.69;;;16.91;33.13
6150;BME280;3106;42.670;23.318;2023-02-26T07:25:02;93033.91;;;16.98;32.64
6150;BME280;3106;42.670;23.318;2023-02-26T07:27:29;93024.47;;;17.06;32.32
6150;BME280;3106;42.670;23.318;2023-02-26T07:29:58;93060.91;;;17.17;32.34
6150;BME280;3106;42.670;23.318;2023-02-26T07:32:25;93057.44;;;17.17;32.42
6150;BME280;3106;42.670;23.318;2023-02-26T07:34:52;93040.88;;;17.15;32.40
6150;BME280;3106;42.670;23.318;2023-02-26T07:37:19;93058.91;;;17.21;32.19
6150;BME280;3106;42.670;23.318;2023-02-26T07:39:45;93051.84;;;17.27;32.38
6150;BME280;3106;42.670;23.318;2023-02-26T07:42:12;93036.97;;;17.39;32.32
6150;BME280;3106;42.670;23.318;2023-02-26T07:44:39;93041.94;;;17.40;31.92
6150;BME280;3106;42.670;23.318;2023-02-26T07:47:07;93034.84;;;17.46;31.80
6150;BME280;3106;42.670;23.318;2023-02-26T07:49:34;93018.28;;;17.64;31.42
6150;BME280;3106;42.670;23.318;2023-02-26T07:52:02;93027.56;;;17.63;31.77
6150;BME280;3106;42.670;23.318;2023-02-26T07:54:29;93010.03;;;17.87;31.41
6150;BME280;3106;42.670;23.318;2023-02-26T07:56:59;93028.97;;;18.03;30.84
6150;BME280;3106;42.670;23.318;2023-02-26T07:59:26;93016.56;;;18.05;30.87
6150;BME280;3106;42.670;23.318;2023-02-26T08:01:53;93025.25;;;17.97;30.58
6150;BME280;3106;42.670;23.318;2023-02-26T08:04:21;93033.41;;;18.13;30.70
6150;BME280;3106;42.670;23.318;2023-02-26T08:06:48;93026.28;;;18.19;30.37
6150;BME280;3106;42.670;23.318;2023-02-26T08:09:15;93040.72;;;18.12;30.27
6150;BME280;3106;42.670;23.318;2023-02-26T08:11:42;93028.22;;;18.18;30.21
6150;BME280;3106;42.670;23.318;2023-02-26T08:14:10;93024.72;;;18.37;29.77
6150;BME280;3106;42.670;23.318;2023-02-26T08:16:37;93020.16;;;18.34;30.24
6150;BME280;3106;42.670;23.318;2023-02-26T08:19:05;93016.78;;;18.30;30.22
6150;BME280;3106;42.670;23.318;2023-02-26T08:21:33;93061.25;;;18.29;29.95
6150;BME280;3106;42.670;23.318;2023-02-26T08:24:00;93056.84;;;18.35;29.94
6150;BME280;3106;42.670;23.318;2023-02-26T08:26:27;93044.56;;;18.30;30.37
6150;BME280;3106;42.670;23.318;2023-02-26T08:28:53;93043.13;;;18.42;29.96
6150;BME280;3106;42.670;23.318;2023-02-26T08:31:20;93063.03;;;18.51;29.92
6150;BME280;3106;42.670;23.318;2023-02-26T08:33:47;93076.44;;;18.55;30.01
6150;BME280;3106;42.670;23.318;2023-02-26T08:36:14;93054.97;;;18.48;29.67
6150;BME280;3106;42.670;23.318;2023-02-26T08:38:42;93078.31;;;18.26;29.63
6150;BME280;3106;42.670;23.318;2023-02-26T08:41:09;93087.28;;;18.55;29.86
6150;BME280;3106;42.670;23.318;2023-02-26T08:43:36;93102.34;;;18.56;29.59
6150;BME280;3106;42.670;23.318;2023-02-26T08:46:03;93080.28;;;18.57;29.23
6150;BME280;3106;42.670;23.318;2023-02-26T08:48:30;93073.81;;;18.67;29.49
6150;BME280;3106;42.670;23.318;2023-02-26T08:50:57;93065.19;;;18.88;29.45
6150;BME280;3106;42.670;23.318;2023-02-26T08:53:24;93097.91;;;18.94;29.27
6150;BME280;3106;42.670;23.318;2023-02-26T08:56:12;93096.31;;;18.96;32.61
6150;BME280;3106;42.670;23.318;2023-02-26T09:09:25;93105.56;;;19.11;28.81
6150;BME280;3106;42.670;23.318;2023-02-26T09:11:53;93135.81;;;19.10;27.99
6150;BME280;3106;42.670;23.318;2023-02-26T09:14:20;93117.03;;;19.47;27.39
6150;BME280;3106;42.670;23.318;2023-02-26T09:16:47;93100.63;;;19.79;27.35
6150;BME280;3106;42.670;23.318;2023-02-26T09:19:13;93133.84;;;19.83;27.23
6150;BME280;3106;42.670;23.318;2023-02-26T09:21:40;93153.38;;;20.19;26.94
6150;BME280;3106;42.670;23.318;2023-02-26T09:24:07;93113.31;;;20.23;26.52
6150;BME280;3106;42.670;23.318;2023-02-26T09:26:34;93116.22;;;20.03;27.01
6150;BME280;3106;42.670;23.318;2023-02-26T09:29:04;93094.75;;;20.21;26.42
6150;BME280;3106;42.670;23.318;2023-02-26T09:31:30;93143.19;;;20.35;26.48
6150;BME280;3106;42.670;23.318;2023-02-26T09:33:58;93130.63;;;20.41;25.81
6150;BME280;3106;42.670;23.318;2023-02-26T09:36:24;93120.59;;;20.63;25.54
6150;BME280;3106;42.670;23.318;2023-02-26T09:38:51;93142.00;;;20.74;25.60
6150;BME280;3106;42.670;23.318;2023-02-26T09:41:22;93144.94;;;20.92;25.92
6150;BME280;3106;42.670;23.318;2023-02-26T09:43:59;93152.19;;;21.07;25.12
6150;BME280;3106;42.670;23.318;2023-02-26T09:46:36;93127.03;;;20.44;25.63
6150;BME280;3106;42.670;23.318;2023-02-26T09:49:14;93116.59;;;20.43;26.02
6150;BME280;3106;42.670;23.318;2023-02-26T09:51:42;93163.06;;;20.32;26.00
6150;BME280;3106;42.670;23.318;2023-02-26T09:54:14;93071.44;;;20.11;26.01
6150;BME280;3106;42.670;23.318;2023-02-26T09:56:43;93135.72;;;20.89;25.79
6150;BME280;3106;42.670;23.318;2023-02-26T09:59:13;93127.09;;;20.91;25.31
6150;BME280;3106;42.670;23.318;2023-02-26T10:01:48;93110.50;;;20.64;26.38
6150;BME280;3106;42.670;23.318;2023-02-26T10:04:24;93135.25;;;20.91;26.31
6150;BME280;3106;42.670;23.318;2023-02-26T10:07:15;93112.47;;;21.22;25.78
6150;BME280;3106;42.670;23.318;2023-02-26T10:10:00;93096.53;;;21.12;25.89
6150;BME280;3106;42.670;23.318;2023-02-26T10:12:33;93101.31;;;21.08;25.97
6150;BME280;3106;42.670;23.318;2023-02-26T10:15:02;93057.44;;;20.97;26.38
6150;BME280;3106;42.670;23.318;2023-02-26T10:17:34;93102.50;;;21.19;26.20
6150;BME280;3106;42.670;23.318;2023-02-26T10:20:12;93075.09;;;21.14;26.28
6150;BME280;3106;42.670;23.318;2023-02-26T10:22:43;93103.88;;;21.24;26.39
6150;BME280;3106;42.670;23.318;2023-02-26T10:25:14;93087.69;;;20.49;26.83
6150;BME280;3106;42.670;23.318;2023-02-26T10:27:52;93058.66;;;20.71;27.12
6150;BME280;3106;42.670;23.318;2023-02-26T10:30:27;93074.00;;;20.65;26.52
6150;BME280;3106;42.670;23.318;2023-02-26T10:33:02;93082.56;;;20.76;26.40
6150;BME280;3106;42.670;23.318;2023-02-26T10:35:36;93083.13;;;20.46;26.89
6150;BME280;3106;42.670;23.318;2023-02-26T10:38:11;93073.38;;;20.36;27.20
6150;BME280;3106;42.670;23.318;2023-02-26T10:40:43;93056.31;;;20.48;27.41
6150;BME280;3106;42.670;23.318;2023-02-26T10:43:18;93013.31;;;20.46;27.11
6150;BME280;3106;42.670;23.318;2023-02-26T10:45:57;93054.31;;;20.86;26.91
6150;BME280;3106;42.670;23.318;2023-02-26T10:48:44;93047.84;;;21.05;26.67
6150;BME280;3106;42.670;23.318;2023-02-26T10:51:16;93041.34;;;20.43;27.53
6150;BME280;3106;42.670;23.318;2023-02-26T10:53:46;93018.88;;;20.18;27.63
6150;BME280;3106;42.670;23.318;2023-02-26T10:56:17;93014.13;;;20.09;28.01
6150;BME280;3106;42.670;23.318;2023-02-26T10:58:46;93036.78;;;20.15;27.51
6150;BME280;3106;42.670;23.318;2023-02-26T11:01:16;93060.31;;;19.93;27.86
6150;BME280;3106;42.670;23.318;2023-02-26T11:03:47;93058.91;;;19.89;27.78
6150;BME280;3106;42.670;23.318;2023-02-26T11:06:19;93045.28;;;19.64;28.21
6150;BME280;3106;42.670;23.318;2023-02-26T11:08:49;93070.34;;;19.68;28.67
6150;BME280;3106;42.670;23.318;2023-02-26T11:11:36;93018.94;;;19.52;28.90
6150;BME280;3106;42.670;23.318;2023-02-26T11:14:05;93082.13;;;19.49;28.67
6150;BME280;3106;42.670;23.318;2023-02-26T11:16:33;93003.66;;;19.17;28.41
6150;BME280;3106;42.670;23.318;2023-02-26T11:19:04;93053.44;;;19.07;29.11
6150;BME280;3106;42.670;23.318;2023-02-26T11:21:37;93024.56;;;18.88;29.45
6150;BME280;3106;42.670;23.318;2023-02-26T11:24:07;93051.03;;;18.81;29.82
6150;BME280;3106;42.670;23.318;2023-02-26T11:26:38;93021.88;;;18.72;29.95
6150;BME280;3106;42.670;23.318;2023-02-26T11:29:13;93030.72;;;18.89;30.12
6150;BME280;3106;42.670;23.318;2023-02-26T11:31:40;93055.78;;;18.77;30.26
6150;BME280;3106;42.670;23.318;2023-02-26T11:34:10;93022.72;;;18.69;30.39
6150;BME280;3106;42.670;23.318;2023-02-26T11:36:40;93025.69;;;18.75;30.72
6150;BME280;3106;42.670;23.318;2023-02-26T11:39:14;93025.34;;;18.73;30.46
6150;BME280;3106;42.670;23.318;2023-02-26T11:41:44;93046.09;;;18.63;31.20
6150;BME280;3106;42.670;23.318;2023-02-26T11:44:14;93034.50;;;18.63;31.05
6150;BME280;3106;42.670;23.318;2023-02-26T11:46:45;93035.44;;;18.56;30.76
6150;BME280;3106;42.670;23.318;2023-02-26T11:49:18;93078.06;;;18.68;30.75
6150;BME280;3106;42.670;23.318;2023-02-26T11:52:13;93082.03;;;18.32;31.31
6150;BME280;3106;42.670;23.318;2023-02-26T11:54:43;93068.00;;;18.37;31.16
6150;BME280;3106;42.670;23.318;2023-02-26T11:57:15;93075.53;;;18.45;31.67
6150;BME280;3106;42.670;23.318;2023-02-26T11:59:44;93127.38;;;18.44;31.66
6150;BME280;3106;42.670;23.318;2023-02-26T12:02:14;93097.09;;;18.33;32.62
6150;BME280;3106;42.670;23.318;2023-02-26T12:04:47;93085.63;;;18.10;32.96
6150;BME280;3106;42.670;23.318;2023-02-26T12:07:16;93133.19;;;18.27;32.89
6150;BME280;3106;42.670;23.318;2023-02-26T12:09:43;93104.19;;;18.43;33.49
6150;BME280;3106;42.670;23.318;2023-02-26T12:12:26;93096.00;;;18.62;33.47
6150;BME280;3106;42.670;23.318;2023-02-26T12:18:20;93096.16;;;18.71;33.45
6150;BME280;3106;42.670;23.318;2023-02-26T12:21:01;93084.63;;;18.20;34.08
6150;BME280;3106;42.670;23.318;2023-02-26T12:24:03;93111.66;;;18.39;33.44
6150;BME280;3106;42.670;23.318;2023-02-26T12:26:39;93118.25;;;18.38;32.17
6150;BME280;3106;42.670;23.318;2023-02-26T12:29:27;93152.16;;;18.42;32.96
6150;BME280;3106;42.670;23.318;2023-02-26T12:32:24;93136.78;;;18.55;32.82
6150;BME280;3106;42.670;23.318;2023-02-26T12:38:07;93153.63;;;18.79;33.17
6150;BME280;3106;42.670;23.318;2023-02-26T12:40:54;93182.47;;;19.01;33.28
6150;BME280;3106;42.670;23.318;2023-02-26T12:43:31;93174.38;;;19.17;32.82
6150;BME280;3106;42.670;23.318;2023-02-26T12:46:07;93180.28;;;19.28;33.41
6150;BME280;3106;42.670;23.318;2023-02-26T12:48:57;93181.53;;;19.40;33.75
6150;BME280;3106;42.670;23.318;2023-02-26T12:51:38;93150.75;;;19.46;33.49
6150;BME280;3106;42.670;23.318;2023-02-26T12:54:34;93151.53;;;19.47;33.86
6150;BME280;3106;42.670;23.318;2023-02-26T12:57:35;93163.16;;;19.31;33.14
6150;BME280;3106;42.670;23.318;2023-02-26T13:00:17;93192.13;;;19.02;33.96
6150;BME280;3106;42.670;23.318;2023-02-26T13:05:56;93183.06;;;19.09;33.93
6150;BME280;3106;42.670;23.318;2023-02-26T13:08:30;93192.81;;;18.90;34.39
6150;BME280;3106;42.670;23.318;2023-02-26T13:11:12;93174.00;;;18.67;34.83
6150;BME280;3106;42.670;23.318;2023-02-26T13:14:10;93180.44;;;18.57;35.05
6150;BME280;3106;42.670;23.318;2023-02-26T13:16:46;93195.19;;;18.37;35.99
6150;BME280;3106;42.670;23.318;2023-02-26T13:19:25;93198.47;;;18.28;36.50
6150;BME280;3106;42.670;23.318;2023-02-26T13:22:14;93196.44;;;18.13;37.06
6150;BME280;3106;42.670;23.318;2023-02-26T13:24:46;93202.34;;;18.27;37.38
6150;BME280;3106;42.670;23.318;2023-02-26T13:27:16;93184.22;;;18.24;36.59
6150;BME280;3106;42.670;23.318;2023-02-26T13:29:46;93167.78;;;18.35;36.69
6150;BME280;3106;42.670;23.318;2023-02-26T13:32:18;93187.69;;;18.44;34.92
6150;BME280;3106;42.670;23.318;2023-02-26T13:34:51;93143.72;;;18.56;35.21
6150;BME280;3106;42.670;23.318;2023-02-26T13:37:24;93160.81;;;18.85;35.34
6150;BME280;3106;42.670;23.318;2023-02-26T13:40:00;93148.50;;;19.29;34.83
6150;BME280;3106;42.670;23.318;2023-02-26T13:42:39;93154.09;;;19.38;34.18
6150;BME280;3106;42.670;23.318;2023-02-26T13:45:20;93137.31;;;19.43;34.29
6150;BME280;3106;42.670;23.318;2023-02-26T13:48:01;93150.81;;;19.30;34.77
6150;BME280;3106;42.670;23.318;2023-02-26T13:50:39;93137.84;;;19.22;34.47
6150;BME280;3106;42.670;23.318;2023-02-26T13:53:33;93155.13;;;19.12;34.27